createdAt,value
2018-04-23T00:00:16.893Z,5.00
2018-04-23T00:05:19.979Z,3.97
2018-04-23T00:10:23.074Z,4.13
2018-04-23T00:15:26.178Z,4.10
2018-04-23T00:20:29.667Z,3.65
2018-04-23T00:25:34.105Z,3.23
2018-04-23T00:30:37.945Z,3.33
2018-04-23T00:35:41.799Z,4.00
2018-04-23T00:40:45.675Z,4.53
2018-04-23T00:45:49.534Z,4.67
2018-04-23T00:50:52.623Z,5.00
2018-04-23T00:55:55.729Z,4.93
2018-04-23T01:00:58.819Z,5.13
2018-04-23T01:06:02.671Z,5.00
2018-04-23T01:11:05.789Z,5.20
2018-04-23T01:16:09.282Z,5.30
2018-04-23T01:21:13.130Z,4.83
2018-04-23T01:26:17.150Z,5.53
2018-04-23T01:31:20.646Z,5.13
2018-04-23T01:36:25.086Z,5.43
2018-04-23T01:41:28.930Z,5.07
2018-04-23T01:46:32.025Z,4.97
2018-04-23T01:51:35.502Z,5.00
2018-04-23T01:56:38.610Z,4.60
2018-04-23T02:01:41.699Z,5.13
2018-04-23T02:06:45.542Z,4.60
2018-04-23T02:11:49.042Z,4.80
2018-04-23T02:16:53.642Z,4.70
2018-04-23T02:21:57.510Z,5.30
2018-04-23T02:27:01.370Z,5.40
2018-04-23T02:32:04.463Z,5.40
2018-04-23T02:37:07.574Z,5.45
2018-04-23T02:42:11.811Z,5.10
2018-04-23T02:47:14.898Z,4.90
2018-04-23T02:52:18.770Z,4.87
2018-04-23T02:57:22.625Z,4.70
2018-04-23T03:02:26.843Z,4.77
2018-04-23T03:07:29.949Z,5.17
2018-04-23T03:12:33.433Z,4.73
2018-04-23T03:17:36.533Z,5.27
2018-04-23T03:22:40.009Z,5.57
2018-04-23T03:27:43.113Z,5.57
2018-04-23T03:32:47.347Z,5.60
2018-04-23T03:37:51.185Z,5.77
2018-04-23T03:42:54.670Z,5.27
2018-04-23T03:47:57.766Z,5.33
2018-04-23T03:53:01.266Z,5.30
2018-04-23T03:58:04.752Z,5.63
2018-04-23T04:03:08.227Z,5.70
2018-04-23T04:08:11.314Z,6.67
2018-04-23T04:13:32.167Z,6.30
2018-04-23T04:18:45.752Z,7.00
2018-04-23T04:23:49.316Z,7.17
2018-04-23T04:28:53.260Z,6.80
2018-04-23T04:33:56.452Z,6.70
2018-04-23T04:38:59.963Z,7.00
2018-04-23T04:44:03.051Z,7.10
2018-04-23T04:49:06.139Z,7.10
2018-04-23T04:54:10.155Z,6.80
2018-04-23T04:59:13.239Z,6.90
2018-04-23T05:04:16.327Z,6.93
2018-04-23T05:09:20.183Z,7.30
2018-04-23T05:14:23.271Z,7.50
2018-04-23T05:19:27.714Z,6.90
2018-04-23T05:24:30.811Z,7.33
2018-04-23T05:29:34.663Z,7.00
2018-04-23T05:34:38.095Z,7.17
2018-04-23T05:39:42.325Z,7.40
2018-04-23T05:44:45.816Z,7.53
2018-04-23T05:49:49.322Z,7.17
2018-04-23T05:54:53.254Z,7.60
2018-04-23T05:59:57.697Z,7.10
2018-04-23T06:05:02.143Z,6.97
2018-04-23T06:10:05.235Z,6.70
2018-04-23T06:15:09.671Z,6.67
2018-04-23T06:20:13.547Z,6.43
2018-04-23T06:25:16.625Z,6.43
2018-04-23T06:30:21.604Z,5.80
2018-04-23T06:35:24.688Z,4.83
2018-04-23T06:40:28.907Z,4.60
2018-04-23T06:45:32.755Z,4.43
2018-04-23T06:50:37.353Z,4.13
2018-04-23T06:55:42.430Z,4.57
2018-04-23T07:00:45.531Z,4.50
2018-04-23T07:05:49.970Z,4.80
2018-04-23T07:10:54.563Z,4.67
2018-04-23T07:15:58.784Z,4.17
2018-04-23T07:21:01.871Z,4.63
2018-04-23T07:26:05.718Z,5.10
2018-04-23T07:31:08.803Z,5.10
2018-04-23T07:36:12.656Z,5.10
2018-04-23T07:41:15.735Z,5.90
2018-04-23T07:46:18.823Z,5.63
2018-04-23T07:51:24.153Z,6.10
2018-04-23T07:56:27.239Z,5.97
2018-04-23T08:01:31.083Z,9.30
2018-04-23T08:06:35.585Z,6.30
2018-04-23T08:11:38.994Z,6.30
2018-04-23T08:16:42.839Z,6.63
2018-04-23T08:21:45.927Z,5.87
2018-04-23T08:26:49.011Z,7.27
2018-04-23T08:31:53.278Z,6.30
2018-04-23T08:36:56.343Z,6.63
2018-04-23T08:42:00.195Z,6.70
2018-04-23T08:47:03.290Z,6.00
2018-04-23T08:52:07.139Z,7.60
2018-04-23T08:57:11.002Z,7.27
2018-04-23T09:02:14.096Z,7.73
2018-04-23T09:07:17.199Z,7.40
2018-04-23T09:12:20.282Z,7.73
2018-04-23T09:17:24.154Z,7.90
2018-04-23T09:22:27.248Z,8.57
2018-04-23T09:27:31.086Z,9.27
2018-04-23T09:32:34.567Z,9.03
2018-04-23T09:37:38.439Z,8.60
2018-04-23T09:42:42.878Z,9.27
2018-04-23T09:47:45.963Z,10.20
2018-04-23T09:52:49.068Z,10.57
2018-04-23T09:57:53.499Z,8.80
2018-04-23T10:02:56.583Z,10.17
2018-04-23T10:08:01.017Z,10.23
2018-04-23T10:13:17.297Z,11.50
2018-04-23T10:18:21.440Z,12.03
2018-04-23T10:23:25.898Z,12.80
2018-04-23T10:28:30.354Z,13.30
2018-04-23T10:33:33.462Z,12.57
2018-04-23T10:38:36.658Z,10.60
2018-04-23T10:43:39.763Z,11.27
2018-04-23T10:48:42.883Z,11.30
2018-04-23T10:53:45.976Z,10.67
2018-04-23T10:58:49.834Z,13.50
2018-04-23T11:03:54.269Z,11.07
2018-04-23T11:08:57.383Z,11.30
2018-04-23T11:14:01.827Z,10.63
2018-04-23T11:19:05.302Z,11.50
2018-04-23T11:24:08.395Z,11.30
2018-04-23T11:29:11.508Z,10.83
2018-04-23T11:34:16.072Z,9.67
2018-04-23T11:39:20.795Z,9.33
2018-04-23T11:44:23.903Z,8.10
2018-04-23T11:49:27.828Z,6.90
2018-04-23T11:54:31.679Z,7.73
2018-04-23T11:59:34.852Z,7.33
2018-04-23T12:04:38.728Z,7.40
2018-04-23T12:09:42.302Z,5.97
2018-04-23T12:14:46.522Z,7.33
2018-04-23T12:19:49.607Z,6.70
2018-04-23T12:24:53.827Z,6.03
2018-04-23T12:29:56.976Z,6.90
2018-04-23T12:35:01.403Z,5.90
2018-04-23T12:40:04.523Z,6.67
2018-04-23T12:45:08.004Z,6.63
2018-04-23T12:50:11.855Z,6.00
2018-04-23T12:55:14.954Z,5.47
2018-04-23T13:00:20.131Z,5.70
2018-04-23T13:05:23.225Z,5.53
2018-04-23T13:10:27.642Z,5.70
2018-04-23T13:15:30.717Z,5.60
2018-04-23T13:20:35.498Z,5.17
2018-04-23T13:25:39.285Z,4.07
2018-04-23T13:30:43.710Z,3.97
2018-04-23T13:35:48.153Z,4.00
2018-04-23T13:40:52.801Z,4.13
2018-04-23T13:45:56.270Z,4.83
2018-04-23T13:51:00.162Z,3.53
2018-04-23T13:56:04.583Z,3.93
2018-04-23T14:01:09.038Z,3.80
2018-04-23T14:06:12.515Z,4.27
2018-04-23T14:11:17.122Z,4.33
2018-04-23T14:16:20.200Z,3.70
2018-04-23T14:21:24.104Z,3.80
2018-04-23T14:26:27.967Z,3.20
2018-04-23T14:31:31.811Z,3.30
2018-04-23T14:36:34.915Z,3.30
2018-04-23T14:41:38.016Z,4.00
2018-04-23T14:46:42.261Z,3.62
2018-04-23T14:51:45.342Z,3.40
2018-04-23T14:56:48.634Z,4.30
2018-04-23T15:01:52.158Z,3.50
2018-04-23T15:06:56.006Z,4.20
2018-04-23T15:12:00.441Z,4.27
2018-04-23T15:17:04.879Z,4.73
2018-04-23T15:22:08.730Z,4.90
2018-04-23T15:27:11.810Z,4.60
2018-04-23T15:32:16.395Z,5.20
2018-04-23T15:37:19.495Z,5.10
2018-04-23T15:42:22.595Z,4.97
2018-04-23T15:47:26.444Z,5.27
2018-04-23T15:52:29.936Z,5.50
2018-04-23T15:57:33.495Z,6.37
2018-04-23T16:02:37.910Z,6.10
2018-04-23T16:07:41.390Z,5.90
2018-04-23T16:12:45.618Z,5.43
2018-04-23T16:17:49.471Z,5.20
2018-04-23T16:22:53.334Z,5.47
2018-04-23T16:27:56.802Z,4.20
2018-04-23T16:32:59.887Z,4.87
2018-04-23T16:38:03.379Z,5.20
2018-04-23T16:43:07.618Z,4.27
2018-04-23T16:48:12.050Z,5.10
2018-04-23T16:53:15.547Z,4.70
2018-04-23T16:58:19.868Z,4.60
2018-04-23T17:03:23.720Z,4.33
2018-04-23T17:08:27.210Z,4.40
2018-04-23T17:13:30.307Z,4.43
2018-04-23T17:18:33.778Z,4.17
2018-04-23T17:23:38.219Z,4.87
2018-04-23T17:28:41.694Z,4.50
2018-04-23T17:33:44.778Z,4.20
2018-04-23T17:38:47.866Z,4.30
2018-04-23T17:43:50.977Z,4.10
2018-04-23T17:48:54.095Z,4.13
2018-04-23T17:53:57.994Z,4.10
2018-04-23T17:59:01.843Z,3.70
2018-04-23T18:04:04.933Z,4.03
2018-04-23T18:09:08.437Z,3.73
2018-04-23T18:14:13.104Z,4.37
2018-04-23T18:19:16.304Z,4.47
2018-04-23T18:24:19.462Z,4.50
2018-04-23T18:29:23.399Z,4.30
2018-04-23T18:34:26.533Z,5.00
2018-04-23T18:39:30.516Z,5.50
2018-04-23T18:44:34.184Z,4.50
2018-04-23T18:49:38.091Z,5.00
2018-04-23T18:54:41.232Z,4.67
2018-04-23T18:59:45.764Z,5.03
2018-04-23T19:04:50.181Z,4.40
2018-04-23T19:09:54.088Z,4.30
2018-04-23T19:14:57.191Z,4.50
2018-04-23T19:20:00.304Z,3.80
2018-04-23T19:25:03.792Z,4.70
2018-04-23T19:30:08.024Z,4.17
2018-04-23T19:35:12.458Z,4.47
2018-04-23T19:40:16.833Z,3.90
2018-04-23T19:45:19.930Z,3.90
2018-04-23T19:50:24.374Z,3.37
2018-04-23T19:55:28.238Z,4.00
2018-04-23T20:00:32.114Z,4.33
2018-04-23T20:05:35.603Z,4.40
2018-04-23T20:10:39.843Z,4.17
2018-04-23T20:15:44.083Z,3.90
2018-04-23T20:20:48.620Z,3.70
2018-04-23T20:25:53.207Z,3.63
2018-04-23T20:30:56.291Z,3.50
2018-04-23T20:35:59.383Z,4.17
2018-04-23T20:41:02.486Z,3.60
2018-04-23T20:46:06.379Z,4.13
2018-04-23T20:51:10.819Z,3.77
2018-04-23T20:56:14.303Z,3.90
2018-04-23T21:01:18.180Z,3.50
2018-04-23T21:06:22.035Z,3.73
2018-04-23T21:11:26.294Z,3.80
2018-04-23T21:16:29.816Z,3.83
2018-04-23T21:21:33.696Z,4.10
2018-04-23T21:26:36.793Z,4.00
2018-04-23T21:31:41.222Z,3.90
2018-04-23T21:36:45.657Z,3.73
2018-04-23T21:41:49.506Z,3.53
2018-04-23T21:46:52.604Z,4.07
2018-04-23T21:51:55.692Z,4.10
2018-04-23T21:57:00.347Z,3.50
2018-04-23T22:02:03.868Z,3.57
2018-04-23T22:07:07.699Z,3.40
2018-04-23T22:12:10.792Z,3.40
2018-04-23T22:17:15.235Z,3.20
2018-04-23T22:22:18.751Z,3.50
2018-04-23T22:27:23.231Z,2.73
2018-04-23T22:32:27.793Z,2.43
2018-04-23T22:37:32.255Z,2.03
2018-04-23T22:42:35.739Z,2.20
2018-04-23T22:47:39.232Z,2.40
2018-04-23T22:52:42.343Z,2.50
2018-04-23T22:57:45.459Z,3.17
2018-04-23T23:02:50.064Z,3.03
2018-04-23T23:07:53.556Z,3.00
2018-04-23T23:12:57.771Z,2.87
2018-04-23T23:18:00.858Z,2.90
2018-04-23T23:23:04.703Z,3.10
2018-04-23T23:28:08.572Z,2.33
2018-04-23T23:33:13.190Z,2.67
2018-04-23T23:38:17.428Z,2.20
2018-04-23T23:43:21.279Z,2.53
2018-04-23T23:48:26.067Z,2.90
2018-04-23T23:53:30.075Z,2.77
2018-04-23T23:58:34.451Z,3.17
